Atwater, IL

2:58 PM CST on February 12, 2016 (GMT -0600)
N.W side of town | | Change Station
CLOSE
Current Station
Personal Weather Station
Location: Raymond, IL
Elevation: 640 ft
Nearby Weather Stations

Elev 640 ft 39.32 °N, 89.58 °W | Updated 21 seconds ago

Overcast
Overcast
28.0 °F
Feels Like 19 °F
N
9.4
Wind Variable Wind from West

Today
High -- | Low -- °F
--% Chance of Precip.
Yesterday
High -- | Low -- °F
Precip. -- in
Pressure 30.29 in
Visibility 10.0 miles
Clouds Mostly Cloudy 2800 ft
Windchill 19 °F
Dew Point 18 °F
Humidity 67%
Rainfall 0.00 in
Snow Depth Not available.
6:54 AM 5:31 PM
Waxing Crescent, 23% visible
METAR K3LF 122035Z AUTO 31017G23KT 10SM BKN028 M03/M08 A3029 RMK AO2 T10301084
Pressure 30.29 in
Visibility 10.0 miles
Clouds Mostly Cloudy 2800 ft
Windchill 19 °F
Dew Point 18 °F
Humidity 67%
Rainfall 0.00 in
Snow Depth Not available.
6:54 AM 5:31 PM
Waxing Crescent, 23% visible
METAR K3LF 122035Z AUTO 31017G23KT 10SM BKN028 M03/M08 A3029 RMK AO2 T10301084

10-Day Weather Forecast

Almanac

Astronomy

Feb. 12, 2016 Rise Set
Actual Time
Civil Twilight
Nautical Twilight
Astronomical Twilight
Moon
Length of Visible Light
Length of Day
Tomorrow will be .
, % of the Moon is Illuminated

Today's Extremes

State Highs State Lows

Community

WunderPhotos

Upload Photos

1,892,389 photos uploaded!

WunderBlog® & News

Nearby

Air Quality

  Air Quality AQ Index Pollutant
Not available.

Snow Depth

Station Depth Elevation

Earthquake Activity

City Distance Mag. Time & Date
Minimum magnitude displayed is 2.5.

Coastal Water Temperatures

Place Temperature

Stations

Nearby Weather Stations

Station Location Temp. Windchill Dew Point Humidity Wind Precip. Elev Updated Type
                   

Watches & Warnings

There are currently no watches in effect.